Time;durP1;ratioP1;P1;durP2;ratioP2;P2;SDS_P1;SDS_P2;PMS_P1;PMS_P2;Temp;Humidity;BMP_temperature;BMP_pressure;BME280_temperature;BME280_humidity;BME280_pressure;Samples;Min_cycle;Max_cycle;Signal;HPM_P1;HPM_P2
2023/07/08 00:02:13;;;;;;;7.47;4.80;;;;;;;22.44;nan;99363.88;4951056;28;20468;-78
2023/07/08 00:04:39;;;;;;;6.53;4.17;;;;;;;22.45;nan;99354.00;4948779;28;20488;-77
2023/07/08 00:07:05;;;;;;;7.07;4.57;;;;;;;22.40;nan;99362.56;4950659;28;20877;-77
2023/07/08 00:09:31;;;;;;;6.63;4.33;;;;;;;22.34;nan;99357.94;4950623;28;20563;-78
2023/07/08 00:11:57;;;;;;;6.07;4.37;;;;;;;22.29;nan;99363.81;4951759;28;20481;-77
2023/07/08 00:14:23;;;;;;;6.20;4.13;;;;;;;22.27;nan;99357.00;4950176;28;20307;-77
2023/07/08 00:16:49;;;;;;;7.43;5.10;;;;;;;22.24;nan;99358.19;4952959;28;20234;-77
2023/07/08 00:19:19;;;;;;;4.23;3.83;;;;;;;22.20;nan;99356.06;4951379;28;20832;-77
2023/07/08 00:21:47;;;;;;;8.07;5.23;;;;;;;22.11;nan;99347.22;4951709;28;20489;-78
2023/07/08 00:24:12;;;;;;;6.23;4.63;;;;;;;22.03;nan;99356.13;4954338;28;20484;-77
2023/07/08 00:26:38;;;;;;;7.20;5.43;;;;;;;21.98;nan;99347.81;4955439;28;20516;-77
2023/07/08 00:29:10;;;;;;;7.87;5.43;;;;;;;21.94;nan;99348.34;4954425;28;20222;-77
2023/07/08 00:31:36;;;;;;;5.33;4.63;;;;;;;21.93;nan;99339.50;4954833;28;20201;-77
2023/07/08 00:34:04;;;;;;;6.83;4.60;;;;;;;21.96;nan;99343.66;4954615;28;21005;-77
2023/07/08 00:36:30;;;;;;;9.03;6.10;;;;;;;21.99;nan;99338.78;4951364;28;21002;-77
2023/07/08 00:38:56;;;;;;;6.23;4.93;;;;;;;22.00;nan;99342.28;4953493;28;20289;-77
2023/07/08 00:41:34;;;;;;;8.10;4.30;;;;;;;21.94;nan;99351.03;4955536;28;20492;-77
2023/07/08 00:44:00;;;;;;;5.63;4.37;;;;;;;21.88;nan;99337.34;4957853;28;20915;-77
2023/07/08 00:46:31;;;;;;;6.23;4.33;;;;;;;21.87;nan;99346.38;4952336;28;20493;-77
2023/07/08 00:49:28;;;;;;;5.17;3.80;;;;;;;21.84;nan;99344.03;4951216;28;20808;-78
2023/07/08 00:51:54;;;;;;;6.70;5.17;;;;;;;21.84;nan;99356.59;4956294;28;20500;-77
2023/07/08 00:54:19;;;;;;;7.07;4.30;;;;;;;21.82;nan;99348.75;4943481;28;20560;-77
2023/07/08 00:56:50;;;;;;;9.20;4.30;;;;;;;21.78;nan;99351.94;4945366;28;20361;-77
2023/07/08 00:59:35;;;;;;;7.03;3.97;;;;;;;21.73;nan;99349.78;4945995;28;20240;-77
2023/07/08 01:02:04;;;;;;;7.00;6.03;;;;;;;21.71;nan;99356.31;4949016;28;20607;-78
2023/07/08 01:04:38;;;;;;;9.10;3.77;;;;;;;21.64;nan;99361.56;4960263;28;20747;-77
2023/07/08 01:07:03;;;;;;;7.77;4.80;;;;;;;21.51;nan;99363.94;4947546;28;20592;-77
2023/07/08 01:09:43;;;;;;;6.03;4.27;;;;;;;21.44;nan;99366.47;4944092;28;20568;-77
2023/07/08 01:12:14;;;;;;;7.43;4.57;;;;;;;21.43;nan;99365.63;4947512;28;20209;-77
2023/07/08 01:14:42;;;;;;;6.87;4.57;;;;;;;21.39;nan;99369.69;4945810;28;20484;-77
2023/07/08 01:17:13;;;;;;;7.07;4.63;;;;;;;21.36;nan;99375.34;4945637;28;20723;-77
2023/07/08 01:19:39;;;;;;;5.57;4.30;;;;;;;21.32;nan;99371.34;4945595;28;21273;-78
2023/07/08 01:22:06;;;;;;;8.23;4.73;;;;;;;21.28;nan;99372.69;4945836;28;20550;-77
2023/07/08 01:24:36;;;;;;;7.17;3.93;;;;;;;21.30;nan;99378.69;4941824;28;20518;-77
2023/07/08 01:27:04;;;;;;;8.20;4.57;;;;;;;21.35;nan;99376.31;4943632;28;20468;-77
2023/07/08 01:29:29;;;;;;;5.93;4.70;;;;;;;21.38;nan;99385.88;4944572;28;20516;-77
2023/07/08 01:31:56;;;;;;;6.30;4.57;;;;;;;21.42;nan;99395.22;4945671;28;20568;-78
2023/07/08 01:34:22;;;;;;;6.90;4.40;;;;;;;21.48;nan;99401.72;4947328;28;22540;-77
2023/07/08 01:36:52;;;;;;;8.70;5.35;;;;;;;21.55;nan;99411.53;4941733;28;20471;-78
2023/07/08 01:39:20;;;;;;;6.57;4.60;;;;;;;21.55;nan;99403.53;4955241;28;20755;-76
2023/07/08 01:41:47;;;;;;;8.00;4.60;;;;;;;21.55;nan;99410.69;4966919;28;20486;-77
2023/07/08 01:44:22;;;;;;;9.40;4.43;;;;;;;21.54;nan;99406.34;4953653;28;20484;-77
2023/07/08 01:46:47;;;;;;;6.77;4.50;;;;;;;21.50;nan;99402.38;4952481;28;20479;-77
2023/07/08 01:49:13;;;;;;;6.40;4.20;;;;;;;21.47;nan;99405.38;4953286;28;20461;-77
2023/07/08 01:51:39;;;;;;;6.10;4.83;;;;;;;21.40;nan;99395.38;4950209;28;20218;-76
2023/07/08 01:54:04;;;;;;;4.80;4.30;;;;;;;21.42;nan;99398.72;4950937;28;20260;-77
2023/07/08 01:56:30;;;;;;;7.33;4.50;;;;;;;21.43;nan;99407.56;4951728;28;20687;-77
2023/07/08 01:58:55;;;;;;;7.87;4.50;;;;;;;21.37;nan;99400.22;4948643;28;20554;-77
2023/07/08 02:01:20;;;;;;;16.80;5.63;;;;;;;21.30;nan;99394.72;4946488;28;20216;-77
2023/07/08 02:03:46;;;;;;;7.57;4.23;;;;;;;21.20;nan;99392.25;4951660;28;20227;-77
2023/07/08 02:06:12;;;;;;;8.30;5.40;;;;;;;21.15;nan;99405.28;4950831;28;20566;-76
2023/07/08 02:08:37;;;;;;;7.30;5.27;;;;;;;21.06;nan;99408.13;4950272;28;20268;-77
2023/07/08 02:11:02;;;;;;;5.57;4.53;;;;;;;21.02;nan;99404.97;4950038;28;20676;-76
2023/07/08 02:13:29;;;;;;;9.10;5.27;;;;;;;21.02;nan;99393.47;4954522;28;20212;-77
2023/07/08 02:15:54;;;;;;;7.93;4.87;;;;;;;21.01;nan;99414.00;4950417;28;20515;-77
2023/07/08 02:18:20;;;;;;;6.70;4.70;;;;;;;21.02;nan;99401.47;4954036;28;20783;-77
2023/07/08 02:20:46;;;;;;;9.40;4.60;;;;;;;20.98;nan;99399.16;4950805;28;20239;-76
2023/07/08 02:23:14;;;;;;;7.40;4.50;;;;;;;20.93;nan;99398.81;4961771;28;20213;-77
2023/07/08 02:25:39;;;;;;;7.30;4.80;;;;;;;20.87;nan;99409.31;4957916;28;20488;-77
2023/07/08 02:28:04;;;;;;;6.07;4.00;;;;;;;20.85;nan;99427.38;4961653;28;20803;-77
2023/07/08 02:30:30;;;;;;;6.30;4.57;;;;;;;20.86;nan;99437.03;4962223;28;20229;-77
2023/07/08 02:32:58;;;;;;;6.03;4.00;;;;;;;20.83;nan;99448.06;4960973;28;20220;-77
2023/07/08 02:35:26;;;;;;;7.77;4.70;;;;;;;20.75;nan;99463.06;4961810;28;20227;-77
2023/07/08 02:37:52;;;;;;;6.00;4.20;;;;;;;20.73;nan;99469.56;4958877;28;20475;-77
2023/07/08 02:40:18;;;;;;;6.67;4.80;;;;;;;20.74;nan;99487.28;4953017;28;20463;-77
2023/07/08 02:42:44;;;;;;;9.03;5.20;;;;;;;20.80;nan;99486.59;4958682;28;20477;-77
2023/07/08 02:45:13;;;;;;;9.87;5.10;;;;;;;20.90;nan;99484.59;4962211;28;20476;-77
2023/07/08 02:47:38;;;;;;;7.23;4.70;;;;;;;21.02;nan;99485.09;4961466;28;20225;-77
2023/07/08 02:50:04;;;;;;;6.50;4.87;;;;;;;21.16;nan;99480.91;4958673;28;20472;-77
2023/07/08 02:52:30;;;;;;;7.03;4.87;;;;;;;21.27;nan;99485.88;4952741;28;20212;-77
2023/07/08 02:54:56;;;;;;;8.10;5.10;;;;;;;21.39;nan;99502.44;4956356;28;20485;-77
2023/07/08 02:57:21;;;;;;;9.13;4.70;;;;;;;21.47;nan;99499.75;4950661;28;20643;-77
2023/07/08 02:59:47;;;;;;;6.87;4.50;;;;;;;21.54;nan;99479.34;4950520;28;20237;-77
2023/07/08 03:02:12;;;;;;;5.17;4.23;;;;;;;21.62;nan;99484.66;4949381;28;20230;-77
2023/07/08 03:04:39;;;;;;;8.03;5.43;;;;;;;21.70;nan;99493.69;4949086;28;20559;-77
2023/07/08 03:07:05;;;;;;;6.20;3.87;;;;;;;21.76;nan;99499.16;4950054;28;20227;-77
2023/07/08 03:09:32;;;;;;;6.53;4.70;;;;;;;21.81;nan;99501.31;4950832;28;20548;-77
2023/07/08 03:11:58;;;;;;;8.53;5.13;;;;;;;21.87;nan;99504.16;4947665;28;20462;-77
2023/07/08 03:14:24;;;;;;;9.17;4.90;;;;;;;21.92;nan;99516.97;4946708;28;20487;-77
2023/07/08 03:16:49;;;;;;;9.00;4.50;;;;;;;21.97;nan;99525.31;4949432;28;20491;-76
2023/07/08 03:19:15;;;;;;;6.30;4.10;;;;;;;22.01;nan;99531.19;4950532;28;20456;-77
2023/07/08 03:21:41;;;;;;;8.03;4.17;;;;;;;22.03;nan;99538.00;4949670;28;20228;-77
2023/07/08 03:24:10;;;;;;;5.23;4.10;;;;;;;22.04;nan;99549.56;4948221;28;20214;-77
2023/07/08 03:26:39;;;;;;;6.33;4.10;;;;;;;22.06;nan;99552.88;4947473;28;20682;-76
2023/07/08 03:29:05;;;;;;;7.60;4.57;;;;;;;22.03;nan;99571.94;4948370;28;20475;-77
2023/07/08 03:31:31;;;;;;;8.30;5.13;;;;;;;21.97;nan;99577.97;4947509;28;20582;-77
2023/07/08 03:33:57;;;;;;;8.47;5.00;;;;;;;21.94;nan;99579.16;4947273;28;20517;-78
2023/07/08 03:36:23;;;;;;;6.00;4.57;;;;;;;21.90;nan;99577.00;4948790;28;20507;-77
2023/07/08 03:38:53;;;;;;;9.93;4.67;;;;;;;21.84;nan;99579.34;4946884;28;20736;-77
2023/07/08 03:41:19;;;;;;;5.70;4.30;;;;;;;21.81;nan;99595.72;4964520;28;20239;-76
2023/07/08 03:43:45;;;;;;;5.90;4.20;;;;;;;21.81;nan;99593.06;4950286;28;20528;-76
2023/07/08 03:46:11;;;;;;;4.63;4.13;;;;;;;21.87;nan;99586.19;4964198;28;20485;-76
2023/07/08 03:48:37;;;;;;;6.43;4.73;;;;;;;21.96;nan;99582.50;4947946;28;20224;-76
2023/07/08 03:51:25;;;;;;;5.10;3.73;;;;;;;22.11;nan;99587.97;4948410;28;21046;-77
2023/07/08 03:53:51;;;;;;;6.33;3.37;;;;;;;22.34;nan;99579.22;4954407;28;20468;-77
2023/07/08 03:56:17;;;;;;;5.53;3.50;;;;;;;22.55;nan;99590.16;4956224;28;20838;-77
2023/07/08 03:58:43;;;;;;;5.57;3.07;;;;;;;22.77;nan;99598.41;4952818;28;20835;-77
2023/07/08 04:01:16;;;;;;;17.67;3.47;;;;;;;22.96;nan;99606.84;4952584;28;20636;-76
2023/07/08 04:03:42;;;;;;;5.97;3.40;;;;;;;23.13;nan;99620.94;4963731;28;20493;-76
2023/07/08 04:06:07;;;;;;;10.53;3.33;;;;;;;23.26;nan;99628.41;4967110;28;20722;-77
2023/07/08 04:08:32;;;;;;;5.43;3.97;;;;;;;23.38;nan;99647.56;4966894;28;20219;-77
2023/07/08 04:10:58;;;;;;;7.43;3.70;;;;;;;23.48;nan;99661.56;4962981;28;20400;-76
2023/07/08 04:13:23;;;;;;;6.40;3.90;;;;;;;23.56;nan;99661.50;4967129;28;20219;-77
2023/07/08 04:15:55;;;;;;;7.00;3.30;;;;;;;23.62;nan;99662.63;4966139;28;20221;-77
2023/07/08 04:18:20;;;;;;;5.00;3.77;;;;;;;23.67;nan;99670.13;4964154;28;20276;-77
2023/07/08 04:20:52;;;;;;;6.77;2.90;;;;;;;23.73;nan;99680.16;4961430;28;20492;-76
2023/07/08 04:23:20;;;;;;;6.40;3.00;;;;;;;23.70;nan;99686.69;4963281;28;20230;-76
2023/07/08 04:25:47;;;;;;;4.67;2.40;;;;;;;23.67;nan;99699.63;4964847;28;20478;-77
2023/07/08 04:28:13;;;;;;;4.80;3.33;;;;;;;23.58;nan;99688.97;4964458;28;20464;-76
2023/07/08 04:30:40;;;;;;;4.13;3.17;;;;;;;23.51;nan;99706.78;4964306;28;20561;-76
2023/07/08 04:33:11;;;;;;;6.87;3.33;;;;;;;23.35;nan;99713.09;4963498;28;20219;-77
2023/07/08 04:35:38;;;;;;;6.15;3.95;;;;;;;23.18;nan;99714.22;4965808;28;20482;-77
2023/07/08 04:38:11;;;;;;;5.60;4.13;;;;;;;23.01;nan;99717.97;4965957;28;20319;-76
2023/07/08 04:40:39;;;;;;;4.83;2.60;;;;;;;22.85;nan;99732.28;4968905;28;20460;-76
2023/07/08 04:43:06;;;;;;;5.93;5.30;;;;;;;22.68;nan;99732.34;4970626;28;20477;-76
2023/07/08 04:45:32;;;;;;;4.63;3.80;;;;;;;22.54;nan;99730.34;4967067;28;20543;-75
2023/07/08 04:47:57;;;;;;;9.17;3.87;;;;;;;22.39;nan;99710.69;4971819;28;20529;-76
2023/07/08 04:50:23;;;;;;;5.70;3.50;;;;;;;22.25;nan;99690.78;4969057;28;20232;-76
2023/07/08 04:52:49;;;;;;;9.50;4.10;;;;;;;22.13;nan;99676.91;4970603;28;20346;-76
2023/07/08 04:55:15;;;;;;;5.40;3.47;;;;;;;22.00;nan;99676.59;4968920;28;20309;-77
2023/07/08 04:57:41;;;;;;;3.87;3.23;;;;;;;21.92;nan;99663.25;4972296;28;20489;-76
2023/07/08 05:00:10;;;;;;;3.93;3.30;;;;;;;21.79;nan;99656.59;4965532;28;20245;-76
2023/07/08 05:02:36;;;;;;;6.20;3.03;;;;;;;21.66;nan;99653.59;4967958;28;20236;-77
2023/07/08 05:05:02;;;;;;;4.13;2.63;;;;;;;21.58;nan;99642.91;4965619;28;20460;-76
2023/07/08 05:07:28;;;;;;;7.93;3.90;;;;;;;21.51;nan;99637.38;4967167;28;20223;-76
2023/07/08 05:09:53;;;;;;;3.40;2.73;;;;;;;21.45;nan;99662.09;4965242;28;20472;-74
2023/07/08 05:12:18;;;;;;;5.10;2.00;;;;;;;21.36;nan;99633.66;4964888;28;20209;-77
2023/07/08 05:14:44;;;;;;;3.30;2.17;;;;;;;21.31;nan;99636.84;4961358;28;20257;-77
2023/07/08 05:17:09;;;;;;;2.33;2.07;;;;;;;21.24;nan;99632.31;4966945;28;20222;-76
2023/07/08 05:19:35;;;;;;;2.77;2.20;;;;;;;21.17;nan;99641.00;4968463;28;20235;-76
2023/07/08 05:22:01;;;;;;;4.80;2.63;;;;;;;21.14;nan;99630.66;4962425;28;20252;-75
2023/07/08 05:24:26;;;;;;;3.00;2.33;;;;;;;21.14;nan;99644.00;4965016;28;20318;-75
2023/07/08 05:26:52;;;;;;;4.07;3.73;;;;;;;21.09;nan;99645.47;4964490;28;20554;-76
2023/07/08 05:29:17;;;;;;;4.03;1.90;;;;;;;21.07;nan;99628.81;4969101;28;20222;-76
2023/07/08 05:31:42;;;;;;;4.53;2.40;;;;;;;21.05;nan;99628.13;4963950;28;20746;-76
2023/07/08 05:34:08;;;;;;;3.33;2.07;;;;;;;21.00;nan;99625.94;4963570;28;20723;-77
2023/07/08 05:36:34;;;;;;;3.80;2.03;;;;;;;20.99;nan;99609.09;4962584;28;20443;-76
2023/07/08 05:38:59;;;;;;;3.43;1.80;;;;;;;20.94;nan;99584.72;4965216;28;20231;-76
2023/07/08 05:41:24;;;;;;;3.17;2.30;;;;;;;20.90;nan;99562.03;4963225;28;20218;-76
2023/07/08 05:43:50;;;;;;;4.77;2.07;;;;;;;20.87;nan;99551.66;4962894;28;20660;-77
2023/07/08 05:46:15;;;;;;;3.13;1.80;;;;;;;20.86;nan;99563.34;4968069;28;20231;-76
2023/07/08 05:48:41;;;;;;;4.63;2.00;;;;;;;20.85;nan;99580.38;4967891;28;20695;-77
2023/07/08 05:51:06;;;;;;;3.10;1.80;;;;;;;20.88;nan;99598.72;4969798;28;20466;-77
2023/07/08 05:53:32;;;;;;;3.47;1.93;;;;;;;20.89;nan;99605.72;4970587;28;20459;-77
2023/07/08 05:55:57;;;;;;;2.77;1.60;;;;;;;20.93;nan;99615.09;4967331;28;20238;-76
2023/07/08 05:58:22;;;;;;;3.37;2.03;;;;;;;20.94;nan;99626.59;4969099;28;20232;-77
2023/07/08 06:00:55;;;;;;;5.77;1.90;;;;;;;21.00;nan;99641.97;4971563;28;20224;-77
2023/07/08 06:03:21;;;;;;;5.90;1.77;;;;;;;20.95;nan;99631.81;4970948;28;20215;-77
2023/07/08 06:05:46;;;;;;;3.13;2.30;;;;;;;20.97;nan;99616.44;4954124;28;21888;-77
2023/07/08 06:08:11;;;;;;;3.50;2.63;;;;;;;21.00;nan;99593.91;4973087;28;21164;-76
2023/07/08 06:10:43;;;;;;;2.87;1.80;;;;;;;21.09;nan;99586.72;4970781;28;20303;-77
2023/07/08 06:13:08;;;;;;;3.37;2.03;;;;;;;21.16;nan;99571.72;4970452;28;20208;-77
2023/07/08 06:15:33;;;;;;;2.30;1.30;;;;;;;21.27;nan;99576.72;4972416;28;20950;-76
2023/07/08 06:18:02;;;;;;;2.17;1.50;;;;;;;21.38;nan;99610.31;4970657;28;20273;-77
2023/07/08 06:20:28;;;;;;;2.43;1.60;;;;;;;21.42;nan;99638.38;4970700;28;20227;-77
2023/07/08 06:22:53;;;;;;;2.90;2.00;;;;;;;21.45;nan;99632.69;4963398;28;20806;-76
2023/07/08 06:25:19;;;;;;;1.90;1.50;;;;;;;21.48;nan;99635.03;4969726;28;20450;-76
2023/07/08 06:27:44;;;;;;;3.60;2.17;;;;;;;21.51;nan;99631.19;4970277;28;20506;-77
2023/07/08 06:30:10;;;;;;;3.00;1.50;;;;;;;21.58;nan;99610.81;4974286;28;20239;-77
2023/07/08 06:32:35;;;;;;;2.50;1.53;;;;;;;21.68;nan;99614.13;4975312;28;20231;-76
2023/07/08 06:35:01;;;;;;;5.10;1.97;;;;;;;21.73;nan;99627.84;4972104;28;20362;-77
2023/07/08 06:37:26;;;;;;;4.40;2.00;;;;;;;21.81;nan;99635.84;4971667;28;20222;-77
2023/07/08 06:39:52;;;;;;;2.63;1.60;;;;;;;21.89;nan;99616.28;4974917;28;20223;-77
2023/07/08 06:42:17;;;;;;;6.67;2.00;;;;;;;21.86;nan;99606.75;4972276;28;20263;-77
2023/07/08 06:44:51;;;;;;;3.30;1.73;;;;;;;21.90;nan;99588.53;4989257;28;20215;-77
2023/07/08 06:47:20;;;;;;;2.87;2.00;;;;;;;21.94;nan;99592.53;4970325;28;20439;-77
2023/07/08 06:49:46;;;;;;;3.33;2.53;;;;;;;22.01;nan;99598.88;4972140;28;20302;-77
2023/07/08 06:52:11;;;;;;;3.07;1.57;;;;;;;22.13;nan;99611.88;4969192;28;20776;-77
2023/07/08 06:54:36;;;;;;;3.50;1.77;;;;;;;22.25;nan;99615.88;4969489;28;20478;-77
2023/07/08 06:57:02;;;;;;;2.27;1.60;;;;;;;22.30;nan;99618.84;4966586;28;20641;-77
2023/07/08 06:59:28;;;;;;;2.73;2.50;;;;;;;22.36;nan;99636.06;4968753;28;20577;-77
2023/07/08 07:01:54;;;;;;;4.20;1.73;;;;;;;22.46;nan;99645.56;4965125;28;20254;-77
2023/07/08 07:04:20;;;;;;;3.67;2.30;;;;;;;22.57;nan;99640.84;4967534;28;20468;-77
2023/07/08 07:06:45;;;;;;;2.43;1.50;;;;;;;22.70;nan;99639.25;4964251;28;20463;-77
2023/07/08 07:09:10;;;;;;;2.57;1.70;;;;;;;22.85;nan;99644.72;4969270;28;20224;-77
2023/07/08 07:11:36;;;;;;;2.30;1.50;;;;;;;22.97;nan;99647.84;4963547;28;20279;-77
2023/07/08 07:14:02;;;;;;;4.37;1.50;;;;;;;23.10;nan;99648.09;4965659;28;20818;-77
2023/07/08 07:16:28;;;;;;;1.97;1.40;;;;;;;23.21;nan;99640.69;4962478;28;20227;-77
2023/07/08 07:18:53;;;;;;;2.80;1.77;;;;;;;23.42;nan;99649.72;4963338;28;20465;-77
2023/07/08 07:21:19;;;;;;;2.53;2.10;;;;;;;23.96;nan;99656.00;4963857;28;20720;-77
2023/07/08 07:23:44;;;;;;;4.03;1.73;;;;;;;24.69;nan;99659.72;4963408;28;20220;-78
2023/07/08 07:26:10;;;;;;;2.10;1.40;;;;;;;25.50;nan;99662.25;4963519;28;20225;-75
2023/07/08 07:28:35;;;;;;;5.43;1.83;;;;;;;26.32;nan;99650.03;4966007;28;20227;-77
2023/07/08 07:31:01;;;;;;;5.23;2.10;;;;;;;27.07;nan;99662.59;4969523;28;20215;-77
2023/07/08 07:33:27;;;;;;;5.27;2.47;;;;;;;27.80;nan;99654.63;4971036;28;20500;-77
2023/07/08 07:35:53;;;;;;;3.60;2.40;;;;;;;28.45;nan;99652.03;4971586;28;21091;-77
2023/07/08 07:38:18;;;;;;;2.93;2.37;;;;;;;29.01;nan;99650.56;4970884;28;20292;-76
2023/07/08 07:40:45;;;;;;;7.70;3.13;;;;;;;29.58;nan;99653.31;4962480;28;20210;-76
2023/07/08 07:43:10;;;;;;;2.90;2.37;;;;;;;29.88;nan;99648.09;4960614;28;20248;-76
2023/07/08 07:45:36;;;;;;;3.53;1.97;;;;;;;29.63;nan;99664.31;4965383;28;20513;-77
2023/07/08 07:48:01;;;;;;;5.77;2.87;;;;;;;29.58;nan;99660.63;4962061;28;20219;-74
2023/07/08 07:50:27;;;;;;;4.30;3.23;;;;;;;29.30;nan;99665.41;4962448;28;20259;-77
2023/07/08 07:52:53;;;;;;;3.90;3.20;;;;;;;29.27;nan;99665.84;4962595;28;20289;-76
2023/07/08 07:55:18;;;;;;;4.60;3.00;;;;;;;29.19;nan;99668.81;4960584;28;20470;-76
2023/07/08 07:57:45;;;;;;;4.27;2.90;;;;;;;29.39;nan;99668.66;4960110;28;20294;-77
2023/07/08 08:00:13;;;;;;;6.80;3.20;;;;;;;29.66;nan;99669.31;4952861;28;20720;-76
2023/07/08 08:02:39;;;;;;;4.27;3.07;;;;;;;29.85;nan;99658.53;4953591;28;21047;-74
2023/07/08 08:05:05;;;;;;;4.35;3.13;;;;;;;30.05;nan;99666.47;4921479;28;20465;-76
2023/07/08 08:07:30;;;;;;;5.27;3.13;;;;;;;30.25;nan;99666.31;4932589;28;20503;-76
2023/07/08 08:09:55;;;;;;;3.77;3.30;;;;;;;30.50;nan;99668.94;4933345;28;20241;-77
2023/07/08 08:12:24;;;;;;;25.23;3.90;;;;;;;30.76;nan;99667.78;4930474;28;20427;-77
2023/07/08 08:14:50;;;;;;;2.90;2.47;;;;;;;30.82;nan;99669.63;4920394;28;20212;-77
2023/07/08 08:17:16;;;;;;;4.80;3.70;;;;;;;30.46;nan;99662.31;4933753;28;20458;-76
2023/07/08 08:19:41;;;;;;;4.93;2.73;;;;;;;29.95;nan;99675.13;4935352;28;21005;-76
2023/07/08 08:22:07;;;;;;;4.30;3.00;;;;;;;29.50;nan;99669.84;4933166;28;20229;-76
2023/07/08 08:24:33;;;;;;;4.93;2.63;;;;;;;29.06;nan;99679.69;4936510;28;20211;-77
2023/07/08 08:26:59;;;;;;;3.07;2.40;;;;;;;28.66;nan;99675.25;4932281;28;20303;-74
2023/07/08 08:29:25;;;;;;;4.00;2.47;;;;;;;28.25;nan;99680.97;4935466;28;20796;-74
2023/07/08 08:31:50;;;;;;;4.60;3.13;;;;;;;27.92;nan;99686.41;4915981;28;20234;-74
2023/07/08 08:34:16;;;;;;;6.60;3.87;;;;;;;27.67;nan;99688.88;4930545;28;20480;-75
2023/07/08 08:36:42;;;;;;;6.20;3.38;;;;;;;27.52;nan;99687.19;4932129;28;20947;-74
2023/07/08 08:39:29;;;;;;;4.80;3.10;;;;;;;27.29;nan;99679.47;4943430;28;20270;-78
2023/07/08 08:41:57;;;;;;;5.00;2.77;;;;;;;27.19;nan;99679.03;4940467;28;20569;-75
2023/07/08 08:44:36;;;;;;;2.47;2.00;;;;;;;27.09;nan;99676.72;4941621;28;20478;-75
2023/07/08 08:47:33;;;;;;;4.17;2.80;;;;;;;27.01;nan;99679.59;4942782;28;20491;-75
2023/07/08 08:50:24;;;;;;;3.57;2.77;;;;;;;26.96;nan;99681.25;4940187;28;20854;-75
2023/07/08 08:52:51;;;;;;;4.27;2.23;;;;;;;26.94;nan;99684.13;4942536;28;21056;-75
2023/07/08 08:55:16;;;;;;;2.60;2.17;;;;;;;27.06;nan;99673.59;4943901;28;20585;-75
2023/07/08 08:57:51;;;;;;;2.90;2.10;;;;;;;27.46;nan;99673.69;4938890;28;20470;-75
2023/07/08 09:00:25;;;;;;;3.33;2.43;;;;;;;27.94;nan;99662.72;4945727;28;20246;-76
2023/07/08 09:03:02;;;;;;;4.00;2.03;;;;;;;28.28;nan;99661.63;4938657;28;20456;-75
2023/07/08 09:05:27;;;;;;;3.38;2.50;;;;;;;28.47;nan;99659.13;4942671;28;20450;-76
2023/07/08 09:08:16;;;;;;;3.47;2.00;;;;;;;28.54;nan;99666.13;4944753;28;20213;-76
2023/07/08 09:10:47;;;;;;;2.40;2.07;;;;;;;28.58;nan;99661.97;4935097;28;21288;-76
2023/07/08 09:13:28;;;;;;;2.40;1.53;;;;;;;28.59;nan;99660.09;4941461;28;21035;-76
2023/07/08 09:16:35;;;;;;;2.50;2.30;;;;;;;28.58;nan;99656.56;4944377;28;20577;-76
2023/07/08 09:19:10;;;;;;;4.03;2.60;;;;;;;28.46;nan;99658.28;4927138;28;21004;-76
2023/07/08 09:21:49;;;;;;;2.23;2.03;;;;;;;28.41;nan;99658.06;4942549;28;20500;-76
2023/07/08 09:24:28;;;;;;;3.30;1.87;;;;;;;28.46;nan;99647.47;4938403;28;20486;-76
2023/07/08 09:26:56;;;;;;;3.53;1.93;;;;;;;28.67;nan;99649.88;4938957;28;20995;-76
2023/07/08 09:29:22;;;;;;;3.40;2.30;;;;;;;28.92;nan;99656.41;4939428;28;20889;-76
2023/07/08 09:31:48;;;;;;;2.80;1.77;;;;;;;29.27;nan;99649.59;4945387;28;20470;-76
2023/07/08 09:34:17;;;;;;;3.50;1.77;;;;;;;29.61;nan;99642.03;4940437;28;20477;-76
2023/07/08 09:36:46;;;;;;;3.40;1.90;;;;;;;29.90;nan;99637.03;4936819;28;20224;-77
2023/07/08 09:39:20;;;;;;;4.03;2.17;;;;;;;30.19;nan;99630.06;4938493;28;20476;-76
2023/07/08 09:41:47;;;;;;;3.77;2.43;;;;;;;30.36;nan;99630.34;4938803;28;20479;-76
2023/07/08 09:44:17;;;;;;;3.83;2.20;;;;;;;30.56;nan;99630.06;4945819;28;20481;-76
2023/07/08 09:46:43;;;;;;;3.47;1.87;;;;;;;30.79;nan;99634.81;4941055;28;20493;-76
2023/07/08 09:49:35;;;;;;;2.93;2.13;;;;;;;30.99;nan;99631.84;4941454;28;20481;-76
2023/07/08 09:52:01;;;;;;;2.90;1.77;;;;;;;30.97;nan;99632.06;4931717;28;20477;-76
2023/07/08 09:54:27;;;;;;;4.30;2.00;;;;;;;31.14;nan;99629.53;4939795;28;20949;-76
2023/07/08 09:57:04;;;;;;;2.73;1.93;;;;;;;31.33;nan;99624.03;4939905;28;20495;-76
2023/07/08 09:59:34;;;;;;;3.00;2.23;;;;;;;31.43;nan;99630.56;4949919;28;20475;-76
2023/07/08 10:02:03;;;;;;;2.57;2.10;;;;;;;31.56;nan;99628.69;4960669;28;20492;-76
2023/07/08 10:04:29;;;;;;;5.37;2.00;;;;;;;31.56;nan;99625.97;4959215;28;20504;-76
2023/07/08 10:06:55;;;;;;;1.97;1.60;;;;;;;31.60;nan;99619.03;4956884;28;20475;-76
2023/07/08 10:09:24;;;;;;;3.07;1.93;;;;;;;31.65;nan;99617.25;4958452;28;20245;-77
2023/07/08 10:12:04;;;;;;;3.10;2.47;;;;;;;31.68;nan;99622.22;4955646;28;20213;-76
2023/07/08 10:14:46;;;;;;;2.33;2.13;;;;;;;31.79;nan;99628.72;4958898;28;20811;-76
2023/07/08 10:17:16;;;;;;;3.70;2.43;;;;;;;31.97;nan;99630.50;4959670;28;20500;-77
2023/07/08 10:19:42;;;;;;;5.80;2.10;;;;;;;32.09;nan;99633.22;4960133;28;20502;-76
2023/07/08 10:22:37;;;;;;;3.30;1.93;;;;;;;32.11;nan;99626.47;4958766;28;21062;-76
2023/07/08 10:25:05;;;;;;;3.60;1.90;;;;;;;32.18;nan;99632.59;4959219;28;20469;-76
2023/07/08 10:27:53;;;;;;;4.40;1.63;;;;;;;32.16;nan;99633.91;4959820;28;20985;-75
2023/07/08 10:30:25;;;;;;;2.30;1.40;;;;;;;32.13;nan;99624.34;4960565;28;20594;-77
2023/07/08 10:32:52;;;;;;;3.20;1.90;;;;;;;32.16;nan;99625.75;4955405;28;20467;-76
2023/07/08 10:35:24;;;;;;;2.80;1.53;;;;;;;32.20;nan;99620.69;4959187;28;20491;-77
2023/07/08 10:38:07;;;;;;;2.23;1.80;;;;;;;32.27;nan;99619.50;4956781;28;20524;-76
2023/07/08 10:41:15;;;;;;;2.70;2.00;;;;;;;32.38;nan;99621.34;4958255;28;20509;-76
2023/07/08 10:44:23;;;;;;;3.27;1.70;;;;;;;32.66;nan;99624.38;4941088;28;20519;-76
2023/07/08 10:47:15;;;;;;;2.80;1.80;;;;;;;32.88;nan;99627.22;4945981;28;20466;-77
2023/07/08 10:50:18;;;;;;;2.87;1.80;;;;;;;32.89;nan;99623.44;4956102;28;20531;-75
2023/07/08 10:53:21;;;;;;;3.23;1.97;;;;;;;32.77;nan;99624.31;4958096;28;20541;-76
2023/07/08 10:55:57;;;;;;;2.57;1.47;;;;;;;32.60;nan;99628.88;4925486;29;20517;-75
2023/07/08 10:58:44;;;;;;;1.80;1.70;;;;;;;32.61;nan;99619.66;4952967;28;20472;-76
2023/07/08 11:01:26;;;;;;;7.50;1.90;;;;;;;32.70;nan;99623.63;4959907;28;20970;-76
2023/07/08 11:04:08;;;;;;;2.20;1.67;;;;;;;32.78;nan;99628.72;4961782;28;20632;-76
2023/07/08 11:07:06;;;;;;;4.93;1.90;;;;;;;33.01;nan;99619.63;4965696;28;20476;-75
2023/07/08 11:09:39;;;;;;;2.93;1.60;;;;;;;33.14;nan;99617.69;4927594;28;20464;-76
2023/07/08 11:12:20;;;;;;;2.13;1.60;;;;;;;33.02;nan;99618.53;4960576;28;20534;-76
2023/07/08 11:14:54;;;;;;;2.20;1.87;;;;;;;32.98;nan;99624.72;4960567;28;21028;-76
2023/07/08 11:17:49;;;;;;;2.37;1.70;;;;;;;33.04;nan;99621.03;4962818;28;21117;-76
2023/07/08 11:20:21;;;;;;;3.23;2.07;;;;;;;33.21;nan;99619.16;4953908;28;20722;-76
2023/07/08 11:22:54;;;;;;;3.27;1.43;;;;;;;33.38;nan;99621.91;4960485;28;20546;-76
2023/07/08 11:25:24;;;;;;;4.20;2.13;;;;;;;33.49;nan;99620.19;4965768;28;20460;-75
2023/07/08 11:27:54;;;;;;;3.70;1.83;;;;;;;33.45;nan;99616.28;4961459;28;20513;-75
2023/07/08 11:30:24;;;;;;;2.70;1.57;;;;;;;33.44;nan;99607.28;4961043;28;20478;-77
2023/07/08 11:32:58;;;;;;;3.20;2.00;;;;;;;33.44;nan;99612.75;4961374;28;20440;-77
2023/07/08 11:35:46;;;;;;;1.83;1.70;;;;;;;33.49;nan;99615.53;4962699;28;20517;-77
2023/07/08 11:38:20;;;;;;;4.87;2.13;;;;;;;33.60;nan;99610.28;4960046;28;20460;-77
2023/07/08 11:40:53;;;;;;;2.97;2.67;;;;;;;33.61;nan;99607.31;4958039;28;20567;-77
2023/07/08 11:43:21;;;;;;;1.70;1.50;;;;;;;33.47;nan;99600.53;4955436;28;20509;-76
2023/07/08 11:45:49;;;;;;;3.13;1.83;;;;;;;33.37;nan;99611.25;4958400;28;20467;-77
2023/07/08 11:48:22;;;;;;;2.50;2.13;;;;;;;33.36;nan;99604.97;4958948;28;20577;-77
2023/07/08 11:50:51;;;;;;;2.27;1.70;;;;;;;33.35;nan;99597.06;4959136;28;20435;-77
2023/07/08 11:53:29;;;;;;;4.23;1.60;;;;;;;33.32;nan;99592.09;4955744;28;20584;-77
2023/07/08 11:56:04;;;;;;;2.00;1.20;;;;;;;33.39;nan;99587.31;4953261;28;20467;-77
2023/07/08 11:58:51;;;;;;;2.20;1.67;;;;;;;33.44;nan;99590.94;4956403;28;20475;-77
2023/07/08 12:01:16;;;;;;;2.27;1.90;;;;;;;33.49;nan;99592.94;4951296;28;20930;-76
2023/07/08 12:03:51;;;;;;;2.30;1.90;;;;;;;33.51;nan;99585.31;4953697;28;20463;-77